Terminal Aerodrome Forecast
Issued by NWS Newport/Morehead City, NC

Home | Current Version | Previous Version | Graphics & Text | Print | Product List | Glossary On
Versions: 1 2 3 4 5 6 7 8 9 10 11 12 13 14 15 16 17
133
FTUS42 KMHX 280533
TAFEWN
TAF
KEWN 280533Z 2806/2906 19007KT P6SM SCT020 BKN080
      TEMPO 2808/2812 BKN020
     FM281200 21008KT P6SM SCT060
     FM281700 20010KT P6SM SCT045 SCT250
     FM282300 20010KT P6SM FEW250=

USA.gov is the U.S. government's official web portal to all federal, state and local government web resources and services.